Time;durP1;ratioP1;P1;durP2;ratioP2;P2;SDS_P1;SDS_P2;PMS_P1;PMS_P2;Temp;Humidity;BMP_temperature;BMP_pressure;BME280_temperature;BME280_humidity;BME280_pressure;Samples;Min_cycle;Max_cycle;Signal;HPM_P1;HPM_P2
2022/02/22 00:01:35;;;;;;;;;;;;;;;18.26;59.52;99629.41;5046390;28;1742;-33
2022/02/22 00:04:01;;;;;;;;;;;;;;;18.28;59.55;99637.25;5039472;28;1644;-34
2022/02/22 00:06:28;;;;;;;;;;;;;;;18.23;59.82;99624.38;5043991;28;1080;-34
2022/02/22 00:08:54;;;;;;;;;;;;;;;18.25;59.61;99626.88;5035280;28;1778;-34
2022/02/22 00:11:21;;;;;;;;;;;;;;;18.25;59.33;99622.38;5042648;28;1935;-34
2022/02/22 00:13:49;;;;;;;;;;;;;;;18.24;59.63;99626.06;5043316;28;1152;-33
2022/02/22 00:16:16;;;;;;;;;;;;;;;18.25;59.74;99622.38;5035334;28;2002;-33
2022/02/22 00:18:42;;;;;;;;;;;;;;;18.24;59.79;99623.38;5044280;28;1820;-34
2022/02/22 00:21:09;;;;;;;;;;;;;;;18.25;59.82;99622.38;5042414;28;1461;-34
2022/02/22 00:23:35;;;;;;;;;;;;;;;18.26;59.45;99628.56;5042337;28;1803;-34
2022/02/22 00:26:02;;;;;;;;;;;;;;;18.23;59.82;99623.53;5043348;28;1797;-34
2022/02/22 00:28:28;;;;;;;;;;;;;;;18.22;59.81;99620.03;5044178;28;1082;-34
2022/02/22 00:30:56;;;;;;;;;;;;;;;18.22;59.09;99620.03;5034667;28;1663;-33
2022/02/22 00:33:22;;;;;;;;;;;;;;;18.22;59.48;99609.31;5043938;28;1811;-33
2022/02/22 00:35:49;;;;;;;;;;;;;;;18.24;59.61;99619.84;5045770;28;1983;-34
2022/02/22 00:38:17;;;;;;;;;;;;;;;18.23;59.49;99608.31;5047043;28;1178;-33
2022/02/22 00:40:43;;;;;;;;;;;;;;;18.22;59.46;99614.69;5044198;28;1083;-34
2022/02/22 00:43:10;;;;;;;;;;;;;;;18.21;60.63;99615.66;5043480;28;1683;-34
2022/02/22 00:45:36;;;;;;;;;;;;;;;18.25;60.13;99618.88;5054360;28;1948;-34
2022/02/22 00:48:05;;;;;;;;;;;;;;;18.22;59.34;99606.66;5046642;28;1625;-33
2022/02/22 00:50:32;;;;;;;;;;;;;;;18.21;59.40;99620.19;5044211;28;1024;-34
2022/02/22 00:52:59;;;;;;;;;;;;;;;18.19;59.72;99604.28;5043895;28;1806;-34
2022/02/22 00:55:25;;;;;;;;;;;;;;;18.21;59.42;99615.66;5049506;28;1960;-33
2022/02/22 00:57:52;;;;;;;;;;;;;;;18.21;59.11;99602.28;5044910;28;1968;-34
2022/02/22 01:00:19;;;;;;;;;;;;;;;18.20;59.63;99597.91;5044919;28;1748;-33
2022/02/22 01:02:47;;;;;;;;;;;;;;;18.20;59.77;99595.22;5040078;28;1376;-33
2022/02/22 01:05:15;;;;;;;;;;;;;;;18.21;59.49;99596.09;5050615;28;1809;-33
2022/02/22 01:07:41;;;;;;;;;;;;;;;18.19;58.44;99592.75;5045434;28;1580;-34
2022/02/22 01:10:08;;;;;;;;;;;;;;;18.19;58.59;99579.38;5042742;28;1628;-33
2022/02/22 01:12:34;;;;;;;;;;;;;;;18.19;59.28;99595.41;5046497;28;1575;-33
2022/02/22 01:15:01;;;;;;;;;;;;;;;18.19;58.73;99579.38;5046574;28;946;-33
2022/02/22 01:17:27;;;;;;;;;;;;;;;18.19;58.93;99584.72;5048569;28;1902;-33
2022/02/22 01:19:54;;;;;;;;;;;;;;;18.21;59.57;99594.25;5040573;28;1579;-33
2022/02/22 01:22:22;;;;;;;;;;;;;;;18.19;59.78;99585.53;5048025;28;1694;-33
2022/02/22 01:24:48;;;;;;;;;;;;;;;18.21;59.40;99569.34;5044760;28;1813;-33
2022/02/22 01:27:14;;;;;;;;;;;;;;;18.21;59.59;99578.19;5046026;28;1405;-34
2022/02/22 01:29:41;;;;;;;;;;;;;;;18.21;59.35;99578.19;5048691;28;1089;-33
2022/02/22 01:32:08;;;;;;;;;;;;;;;18.18;60.32;99591.88;5049235;28;2002;-33
2022/02/22 01:34:34;;;;;;;;;;;;;;;18.17;59.76;99574.16;5042850;28;1614;-33
2022/02/22 01:37:01;;;;;;;;;;;;;;;18.16;59.46;99583.16;5044794;28;1950;-33
2022/02/22 01:39:28;;;;;;;;;;;;;;;18.20;59.81;99565.81;5042822;28;1824;-33
2022/02/22 01:41:55;;;;;;;;;;;;;;;18.17;59.70;99576.84;5045391;28;1861;-34
2022/02/22 01:44:23;;;;;;;;;;;;;;;18.15;59.74;99584.19;5043671;28;1086;-33
2022/02/22 01:46:57;;;;;;;;;;;;;;;18.16;59.19;99580.50;5040739;28;1596;-33
2022/02/22 01:49:23;;;;;;;;;;;;;;;18.18;58.51;99577.66;5044962;28;1405;-33
2022/02/22 01:51:50;;;;;;;;;;;;;;;18.19;57.46;99574.84;5043224;28;1676;-34
2022/02/22 01:54:17;;;;;;;;;;;;;;;18.19;58.64;99582.88;5046788;28;1539;-33
2022/02/22 01:56:45;;;;;;;;;;;;;;;18.17;59.19;99576.84;5042341;28;1971;-33
2022/02/22 01:59:12;;;;;;;;;;;;;;;18.19;59.21;99587.38;5046239;28;1027;-33
2022/02/22 02:01:38;;;;;;;;;;;;;;;18.17;58.28;99571.50;5048365;28;1648;-33
2022/02/22 02:04:05;;;;;;;;;;;;;;;18.17;59.29;99587.53;5041463;28;1745;-36
2022/02/22 02:06:32;;;;;;;;;;;;;;;18.16;59.17;99582.34;5045490;28;1130;-33
2022/02/22 02:08:59;;;;;;;;;;;;;;;18.16;58.52;99580.50;5045811;28;2593;-34
2022/02/22 02:11:25;;;;;;;;;;;;;;;18.17;58.68;99597.41;5039842;28;1678;-34
2022/02/22 02:13:53;;;;;;;;;;;;;;;18.17;59.10;99587.53;5048155;28;1980;-33
2022/02/22 02:16:19;;;;;;;;;;;;;;;18.16;58.58;99590.38;5041013;28;1902;-33
2022/02/22 02:18:46;;;;;;;;;;;;;;;18.16;58.65;99601.91;5041372;28;1731;-33
2022/02/22 02:21:12;;;;;;;;;;;;;;;18.17;58.19;99603.59;5045716;28;1940;-34
2022/02/22 02:23:40;;;;;;;;;;;;;;;18.18;58.66;99601.75;5044393;28;1616;-35
2022/02/22 02:26:07;;;;;;;;;;;;;;;18.14;58.78;99595.03;5044427;28;1715;-34
2022/02/22 02:28:33;;;;;;;;;;;;;;;18.15;58.45;99608.28;5045321;28;1253;-33
2022/02/22 02:31:00;;;;;;;;;;;;;;;18.14;59.41;99614.59;5036698;28;1908;-33
2022/02/22 02:33:26;;;;;;;;;;;;;;;18.16;59.33;99609.94;5045073;28;1810;-33
2022/02/22 02:35:52;;;;;;;;;;;;;;;18.15;58.45;99605.59;5043247;28;1822;-33
2022/02/22 02:38:19;;;;;;;;;;;;;;;18.11;59.00;99601.56;5038478;28;1910;-33
2022/02/22 02:40:47;;;;;;;;;;;;;;;18.11;59.77;99604.22;5045588;28;1080;-33
2022/02/22 02:43:13;;;;;;;;;;;;;;;18.15;59.86;99604.75;5040572;28;1810;-33
2022/02/22 02:45:39;;;;;;;;;;;;;;;18.11;59.88;99588.19;5052378;28;1814;-33
2022/02/22 02:48:06;;;;;;;;;;;;;;;18.14;59.26;99611.94;5044258;28;1610;-34
2022/02/22 02:50:32;;;;;;;;;;;;;;;18.13;59.59;99606.75;5043038;28;1079;-33
2022/02/22 02:52:59;;;;;;;;;;;;;;;18.14;59.80;99605.75;5045982;28;1901;-33
2022/02/22 02:55:25;;;;;;;;;;;;;;;18.12;58.57;99600.53;5038589;28;1719;-34
2022/02/22 02:57:53;;;;;;;;;;;;;;;18.10;59.78;99605.22;5047280;28;1983;-33
2022/02/22 03:02:56;;;;;;;;;;;;;;;18.13;58.70;99601.41;5002924;28;1912;-33
2022/02/22 03:05:23;;;;;;;;;;;;;;;18.11;59.05;99593.53;5000824;28;1852;-33
2022/02/22 03:07:53;;;;;;;;;;;;;;;18.13;59.45;99622.81;5005620;28;1654;-33
2022/02/22 03:10:20;;;;;;;;;;;;;;;18.08;58.77;99607.22;4998146;28;1781;-33
2022/02/22 03:12:50;;;;;;;;;;;;;;;18.09;58.24;99611.56;4995054;28;1416;-32
2022/02/22 03:15:22;;;;;;;;;;;;;;;18.07;58.29;99602.88;5002909;28;1112;-33
2022/02/22 03:17:49;;;;;;;;;;;;;;;18.08;58.39;99616.09;5008230;28;1906;-33
2022/02/22 03:20:18;;;;;;;;;;;;;;;18.08;58.18;99609.88;4997164;28;1930;-33
2022/02/22 03:22:53;;;;;;;;;;;;;;;18.07;58.15;99622.44;5004381;28;1448;-33
2022/02/22 03:25:21;;;;;;;;;;;;;;;18.07;58.29;99622.44;5000564;28;1837;-33
2022/02/22 03:27:48;;;;;;;;;;;;;;;18.08;58.37;99625.94;5000463;28;1928;-33
2022/02/22 03:30:17;;;;;;;;;;;;;;;18.08;58.07;99626.78;4994092;28;1134;-33
2022/02/22 03:32:49;;;;;;;;;;;;;;;18.08;59.12;99617.91;5000609;28;1758;-33
2022/02/22 03:35:18;;;;;;;;;;;;;;;18.04;58.53;99616.53;5006541;28;1797;-33
2022/02/22 03:37:45;;;;;;;;;;;;;;;18.04;59.07;99609.34;5006873;28;1977;-33
2022/02/22 03:40:13;;;;;;;;;;;;;;;18.07;58.86;99609.06;5002211;28;1479;-33
2022/02/22 03:42:44;;;;;;;;;;;;;;;18.07;58.92;99608.22;5007014;28;1804;-33
2022/02/22 03:45:27;;;;;;;;;;;;;;;18.05;58.66;99616.41;4993996;28;1074;-33
2022/02/22 03:47:59;;;;;;;;;;;;;;;18.03;59.64;99615.72;5000738;28;1088;-33
2022/02/22 03:50:26;;;;;;;;;;;;;;;18.04;59.73;99627.25;4999928;28;1012;-33
2022/02/22 03:52:53;;;;;;;;;;;;;;;18.04;59.49;99624.56;5005990;28;1389;-33
2022/02/22 03:55:34;;;;;;;;;;;;;;;18.01;59.63;99619.56;5003116;28;1459;-33
2022/02/22 03:58:02;;;;;;;;;;;;;;;18.01;58.61;99632.94;5000536;28;1918;-33
2022/02/22 04:00:30;;;;;;;;;;;;;;;18.02;58.85;99618.53;5011719;28;1782;-33
2022/02/22 04:03:03;;;;;;;;;;;;;;;18.03;59.64;99629.09;5008034;28;1334;-33
2022/02/22 04:05:31;;;;;;;;;;;;;;;18.00;58.75;99637.41;5006131;28;1353;-33
2022/02/22 04:08:01;;;;;;;;;;;;;;;18.00;58.67;99631.22;5011522;28;1966;-33
2022/02/22 04:10:31;;;;;;;;;;;;;;;18.01;58.87;99632.94;5011234;28;1063;-33
2022/02/22 04:13:08;;;;;;;;;;;;;;;18.00;58.98;99631.22;5007786;28;1774;-33
2022/02/22 04:15:34;;;;;;;;;;;;;;;18.00;58.69;99628.56;5014957;28;1749;-33
2022/02/22 04:18:04;;;;;;;;;;;;;;;18.00;58.92;99629.38;5010129;28;1910;-33
2022/02/22 04:20:33;;;;;;;;;;;;;;;17.99;58.92;99642.94;5000455;28;1064;-32
2022/02/22 04:22:59;;;;;;;;;;;;;;;18.00;59.22;99649.97;5008854;28;1583;-33
2022/02/22 04:25:34;;;;;;;;;;;;;;;17.97;58.64;99643.09;5012460;28;1679;-33
2022/02/22 04:28:01;;;;;;;;;;;;;;;17.98;58.98;99635.91;5006750;28;1436;-33
2022/02/22 04:30:27;;;;;;;;;;;;;;;17.98;58.83;99649.28;4998036;28;1604;-33
2022/02/22 04:32:57;;;;;;;;;;;;;;;18.01;58.64;99665.03;5006992;28;1167;-33
2022/02/22 04:35:27;;;;;;;;;;;;;;;17.98;58.85;99655.47;5009814;28;1310;-33
2022/02/22 04:37:55;;;;;;;;;;;;;;;17.98;58.46;99654.63;5001130;28;1910;-33
2022/02/22 04:40:22;;;;;;;;;;;;;;;17.96;58.58;99656.63;5006903;28;1997;-33
2022/02/22 04:42:49;;;;;;;;;;;;;;;17.98;58.17;99673.34;5002671;28;1490;-33
2022/02/22 04:45:20;;;;;;;;;;;;;;;17.95;58.37;99668.31;5014552;28;1063;-32
2022/02/22 04:47:49;;;;;;;;;;;;;;;17.95;58.51;99673.69;5007823;28;1171;-33
2022/02/22 04:50:19;;;;;;;;;;;;;;;17.98;58.82;99678.69;5008446;28;1598;-33
2022/02/22 04:52:47;;;;;;;;;;;;;;;17.96;58.43;99686.03;4998087;28;1545;-33
2022/02/22 04:55:16;;;;;;;;;;;;;;;17.98;58.81;99684.06;5003081;28;1782;-33
2022/02/22 04:57:45;;;;;;;;;;;;;;;17.95;58.78;99679.03;4998459;28;1911;-33
2022/02/22 05:00:13;;;;;;;;;;;;;;;17.92;58.80;99674.81;5013805;28;1060;-33
2022/02/22 05:02:41;;;;;;;;;;;;;;;17.92;59.43;99687.34;5011916;28;1922;-33
2022/02/22 05:05:08;;;;;;;;;;;;;;;17.94;59.72;99685.34;5002147;28;1817;-33
2022/02/22 05:07:35;;;;;;;;;;;;;;;17.93;59.04;99681.03;5005792;28;1635;-33
2022/02/22 05:10:05;;;;;;;;;;;;;;;17.92;59.02;99679.31;5010765;28;1483;-33
2022/02/22 05:12:37;;;;;;;;;;;;;;;17.92;59.45;99680.16;5005516;28;1744;-32
2022/02/22 05:15:05;;;;;;;;;;;;;;;17.95;59.10;99684.38;5011468;28;1589;-33
2022/02/22 05:17:32;;;;;;;;;;;;;;;17.92;58.24;99677.47;4999240;28;1898;-33
2022/02/22 05:20:02;;;;;;;;;;;;;;;17.94;58.49;99680.00;4998136;28;1448;-33
2022/02/22 05:22:31;;;;;;;;;;;;;;;17.95;58.36;99695.06;5000893;28;1634;-33
2022/02/22 05:24:58;;;;;;;;;;;;;;;17.94;58.20;99701.41;5013611;28;1431;-33
2022/02/22 05:27:30;;;;;;;;;;;;;;;17.95;58.77;99695.06;5008243;28;1333;-33
2022/02/22 05:29:59;;;;;;;;;;;;;;;17.93;58.57;99694.38;4996660;28;1054;-33
2022/02/22 05:32:27;;;;;;;;;;;;;;;17.91;58.71;99697.22;4997957;28;1583;-32
2022/02/22 05:34:56;;;;;;;;;;;;;;;17.94;58.45;99701.41;5003768;28;1967;-32
2022/02/22 05:37:26;;;;;;;;;;;;;;;17.93;58.49;99703.25;5004676;28;1907;-33
2022/02/22 05:39:54;;;;;;;;;;;;;;;17.92;58.41;99696.19;5000295;28;1607;-33
2022/02/22 05:42:21;;;;;;;;;;;;;;;17.94;58.39;99702.25;5003646;28;1805;-33
2022/02/22 05:44:51;;;;;;;;;;;;;;;17.94;58.26;99704.06;5009633;28;1089;-33
2022/02/22 05:47:21;;;;;;;;;;;;;;;17.95;58.84;99697.75;5005567;28;1715;-33
2022/02/22 05:49:54;;;;;;;;;;;;;;;17.94;58.21;99690.72;5005417;28;2478;-33
2022/02/22 05:52:24;;;;;;;;;;;;;;;17.97;58.67;99703.78;5006137;28;1618;-33
2022/02/22 05:54:54;;;;;;;;;;;;;;;17.96;58.13;99707.44;5007753;28;1475;-33
2022/02/22 05:57:23;;;;;;;;;;;;;;;17.96;58.37;99705.59;5007928;28;1404;-33
2022/02/22 05:59:54;;;;;;;;;;;;;;;17.94;57.97;99707.59;5002115;28;1024;-33
2022/02/22 06:02:21;;;;;;;;;;;;;;;17.94;57.99;99714.78;5005925;28;1675;-33
2022/02/22 06:04:50;;;;;;;;;;;;;;;17.97;58.50;99727.84;4997996;28;1314;-33
2022/02/22 06:07:22;;;;;;;;;;;;;;;17.99;58.17;99721.34;5003476;28;1488;-33
2022/02/22 06:09:53;;;;;;;;;;;;;;;18.04;58.48;99742.28;5002605;28;1023;-33
2022/02/22 06:12:22;;;;;;;;;;;;;;;18.07;58.69;99752.69;5006692;28;1758;-32
2022/02/22 06:14:54;;;;;;;;;;;;;;;18.10;58.45;99763.06;4998756;28;1066;-33
2022/02/22 06:17:21;;;;;;;;;;;;;;;18.07;58.79;99772.25;5009665;28;1815;-33
2022/02/22 06:19:48;;;;;;;;;;;;;;;18.05;57.73;99765.38;5007352;28;1959;-32
2022/02/22 06:22:21;;;;;;;;;;;;;;;18.00;59.09;99751.59;5005239;28;1937;-32
2022/02/22 06:24:51;;;;;;;;;;;;;;;17.95;59.14;99765.44;5005968;28;1611;-32
2022/02/22 06:27:18;;;;;;;;;;;;;;;18.10;58.93;99763.06;5009431;28;1362;-32
2022/02/22 06:29:48;;;;;;;;;;;;;;;18.11;59.03;99770.09;5014610;28;1079;-32
2022/02/22 06:32:20;;;;;;;;;;;;;;;18.14;59.27;99758.25;5000676;28;1757;-32
2022/02/22 06:34:50;;;;;;;;;;;;;;;18.11;59.07;99764.75;5008105;28;1789;-32
2022/02/22 06:37:19;;;;;;;;;;;;;;;18.18;58.16;99771.16;5000057;28;1634;-33
2022/02/22 06:39:45;;;;;;;;;;;;;;;18.12;59.05;99773.63;5002936;28;1903;-32
2022/02/22 06:42:15;;;;;;;;;;;;;;;18.09;58.19;99780.97;5003237;28;1576;-32
2022/02/22 06:44:44;;;;;;;;;;;;;;;18.05;58.16;99789.44;5009720;28;1380;-33
2022/02/22 06:47:11;;;;;;;;;;;;;;;18.05;58.19;99797.47;5002272;28;1812;-33
2022/02/22 06:49:41;;;;;;;;;;;;;;;18.05;58.75;99800.16;5005813;28;1594;-34
2022/02/22 06:52:09;;;;;;;;;;;;;;;18.04;58.84;99804.63;5005100;28;1761;-32
2022/02/22 06:54:39;;;;;;;;;;;;;;;18.05;58.70;99810.84;5002429;28;1652;-33
2022/02/22 06:57:08;;;;;;;;;;;;;;;18.07;58.47;99820.41;5006528;28;1701;-32
2022/02/22 06:59:40;;;;;;;;;;;;;;;18.12;58.76;99829.81;5002271;28;2002;-32
2022/02/22 07:02:07;;;;;;;;;;;;;;;18.08;58.29;99824.78;5001343;28;1968;-32
2022/02/22 07:04:39;;;;;;;;;;;;;;;18.10;58.09;99827.28;5013534;28;1784;-32
2022/02/22 07:07:07;;;;;;;;;;;;;;;18.11;58.62;99830.81;5009273;28;1610;-33
2022/02/22 07:09:37;;;;;;;;;;;;;;;18.12;58.42;99836.00;5009365;28;1670;-33
2022/02/22 07:12:07;;;;;;;;;;;;;;;18.08;58.27;99835.47;5008908;28;1559;-32
2022/02/22 07:14:37;;;;;;;;;;;;;;;18.11;58.48;99845.03;4998848;28;992;-32
2022/02/22 07:17:10;;;;;;;;;;;;;;;18.14;58.85;99849.22;5010124;28;1578;-33
2022/02/22 07:19:40;;;;;;;;;;;;;;;18.14;58.64;99858.09;4997271;28;1883;-32
2022/02/22 07:22:09;;;;;;;;;;;;;;;18.14;58.88;99854.56;5003904;28;1566;-33
2022/02/22 07:24:38;;;;;;;;;;;;;;;18.17;58.54;99876.53;5010168;28;1789;-33
2022/02/22 07:27:08;;;;;;;;;;;;;;;18.14;59.07;99866.09;4998421;28;1971;-33
2022/02/22 07:29:35;;;;;;;;;;;;;;;18.16;58.73;99874.81;5006330;28;1051;-32
2022/02/22 07:32:04;;;;;;;;;;;;;;;18.15;58.75;99875.00;5005987;28;1820;-32
2022/02/22 07:34:36;;;;;;;;;;;;;;;18.14;58.91;99879.47;5001072;28;2084;-33
2022/02/22 07:37:03;;;;;;;;;;;;;;;18.15;58.71;99889.22;5009077;28;1773;-32
2022/02/22 07:39:33;;;;;;;;;;;;;;;18.12;58.83;99902.03;4996810;28;1902;-33
2022/02/22 07:42:08;;;;;;;;;;;;;;;18.10;58.73;99896.84;5009421;28;1663;-32
2022/02/22 07:44:34;;;;;;;;;;;;;;;18.12;58.56;99902.03;4998029;28;1123;-33
2022/02/22 07:47:03;;;;;;;;;;;;;;;18.08;58.72;99899.69;5004764;28;1844;-32
2022/02/22 07:49:32;;;;;;;;;;;;;;;18.07;58.67;99898.00;5009245;28;1520;-32
2022/02/22 07:52:02;;;;;;;;;;;;;;;18.07;58.87;99902.50;5006466;28;1677;-32
2022/02/22 07:54:33;;;;;;;;;;;;;;;18.10;58.86;99910.22;5012037;28;1990;-33
2022/02/22 07:57:00;;;;;;;;;;;;;;;18.04;58.68;99908.16;5000446;28;1829;-33
2022/02/22 07:59:27;;;;;;;;;;;;;;;18.05;59.08;99920.53;4997835;28;1902;-32
2022/02/22 08:01:57;;;;;;;;;;;;;;;18.04;58.55;99917.00;5005407;28;2047;-32
2022/02/22 08:04:26;;;;;;;;;;;;;;;18.06;58.61;99927.56;5015349;28;2344;-32
2022/02/22 08:06:55;;;;;;;;;;;;;;;18.07;58.26;99932.78;5006483;28;1939;-32
2022/02/22 08:09:28;;;;;;;;;;;;;;;18.08;58.36;99941.63;4997967;28;1012;-32
2022/02/22 08:11:57;;;;;;;;;;;;;;;18.03;58.61;99925.19;4999994;28;2073;-32
2022/02/22 08:14:29;;;;;;;;;;;;;;;18.05;59.10;99952.66;4997965;28;1019;-32
2022/02/22 08:17:08;;;;;;;;;;;;;;;18.02;58.92;99945.75;4999595;28;1440;-32
2022/02/22 08:19:37;;;;;;;;;;;;;;;17.99;59.09;99946.06;5008431;28;1972;-32
2022/02/22 08:22:07;;;;;;;;;;;;;;;17.99;58.62;99935.34;5010904;28;1769;-33
2022/02/22 08:24:37;;;;;;;;;;;;;;;18.00;59.00;99933.50;5014395;28;1855;-32
2022/02/22 08:27:06;;;;;;;;;;;;;;;18.02;59.02;99939.56;5008100;28;1476;-32
2022/02/22 08:29:35;;;;;;;;;;;;;;;18.02;59.22;99944.91;4997500;28;1104;-33
2022/02/22 08:32:04;;;;;;;;;;;;;;;18.01;59.03;99941.41;5003991;28;1986;-32
2022/02/22 08:34:33;;;;;;;;;;;;;;;18.01;59.02;99940.56;5006602;28;1578;-32
2022/02/22 08:37:02;;;;;;;;;;;;;;;18.01;58.32;99930.69;5004825;28;1742;-32
2022/02/22 08:39:30;;;;;;;;;;;;;;;18.04;58.50;99950.94;5006245;28;1902;-32
2022/02/22 08:42:03;;;;;;;;;;;;;;;18.00;58.85;99950.41;5010995;28;1848;-32
2022/02/22 08:44:33;;;;;;;;;;;;;;;17.99;58.62;99948.72;4996964;28;1064;-32
2022/02/22 08:47:03;;;;;;;;;;;;;;;18.02;58.78;99958.28;5002796;28;1503;-32
2022/02/22 08:49:30;;;;;;;;;;;;;;;18.01;58.82;99951.25;5001695;28;1844;-32
2022/02/22 08:52:00;;;;;;;;;;;;;;;18.02;58.52;99956.44;5009807;28;1852;-32
2022/02/22 08:54:26;;;;;;;;;;;;;;;18.03;58.65;99951.97;5006552;28;1841;-32
2022/02/22 08:56:56;;;;;;;;;;;;;;;18.00;58.69;99954.91;5012191;28;1765;-32
2022/02/22 08:59:29;;;;;;;;;;;;;;;17.98;58.62;99948.88;4997437;28;1902;-32
2022/02/22 09:01:58;;;;;;;;;;;;;;;18.02;59.06;99968.97;4998359;28;1765;-32
2022/02/22 09:04:28;;;;;;;;;;;;;;;17.99;58.97;99955.91;4998295;28;1840;-32
2022/02/22 09:06:57;;;;;;;;;;;;;;;17.96;59.14;99954.38;5001126;28;1777;-32
2022/02/22 09:09:24;;;;;;;;;;;;;;;18.00;59.30;99957.59;5005506;28;1583;-33
2022/02/22 09:11:51;;;;;;;;;;;;;;;17.98;58.79;99946.19;5003074;28;964;-32
2022/02/22 09:14:21;;;;;;;;;;;;;;;17.95;59.01;99938.47;5010665;28;1819;-32
2022/02/22 09:16:50;;;;;;;;;;;;;;;17.95;58.90;99947.34;5008460;28;1945;-32
2022/02/22 09:19:19;;;;;;;;;;;;;;;17.93;58.95;99949.31;4998636;28;1906;-33
2022/02/22 09:21:48;;;;;;;;;;;;;;;17.94;58.81;99950.16;4998173;28;1801;-33
2022/02/22 09:24:18;;;;;;;;;;;;;;;17.92;59.14;99947.63;5004555;28;1951;-32
2022/02/22 09:26:45;;;;;;;;;;;;;;;17.96;59.34;99959.72;4999659;28;1769;-32
2022/02/22 09:29:12;;;;;;;;;;;;;;;17.93;59.36;99951.16;5007532;28;1078;-32
2022/02/22 09:31:40;;;;;;;;;;;;;;;17.98;59.19;99959.56;5002250;28;1804;-32
2022/02/22 09:34:12;;;;;;;;;;;;;;;17.97;58.92;99960.56;4998061;28;1562;-33
2022/02/22 09:36:39;;;;;;;;;;;;;;;18.00;59.10;99961.09;5004626;28;1599;-33
2022/02/22 09:39:06;;;;;;;;;;;;;;;18.00;59.08;99954.91;5011630;28;1973;-32
2022/02/22 09:41:40;;;;;;;;;;;;;;;18.02;58.08;99958.28;5003516;28;1722;-32
2022/02/22 09:44:10;;;;;;;;;;;;;;;18.01;58.08;99956.63;5007296;28;1074;-33
2022/02/22 09:46:44;;;;;;;;;;;;;;;18.05;58.46;99963.34;5002401;28;1860;-32
2022/02/22 09:49:14;;;;;;;;;;;;;;;18.05;58.76;99958.84;5003712;28;2093;-33
2022/02/22 09:51:43;;;;;;;;;;;;;;;18.04;58.46;99961.66;5002520;28;1872;-33
2022/02/22 09:54:10;;;;;;;;;;;;;;;18.02;58.80;99967.13;4996356;28;1230;-33
2022/02/22 09:56:44;;;;;;;;;;;;;;;17.99;58.74;99962.09;5009903;28;1407;-33
2022/02/22 09:59:17;;;;;;;;;;;;;;;18.01;58.76;99970.81;5004400;28;1983;-33
2022/02/22 10:01:47;;;;;;;;;;;;;;;18.04;58.94;99983.06;5009517;28;1937;-33
2022/02/22 10:04:19;;;;;;;;;;;;;;;18.00;58.50;99960.25;4995793;28;1809;-33
2022/02/22 10:06:46;;;;;;;;;;;;;;;17.97;58.96;99972.13;5008271;28;1771;-33
2022/02/22 10:09:15;;;;;;;;;;;;;;;18.00;59.04;99976.31;4998893;28;1092;-33
2022/02/22 10:11:47;;;;;;;;;;;;;;;17.98;59.55;99975.63;4997063;28;1633;-33
2022/02/22 10:14:21;;;;;;;;;;;;;;;17.96;58.98;99973.09;5002136;28;1891;-33
2022/02/22 10:16:50;;;;;;;;;;;;;;;17.99;59.04;99980.81;4998144;28;1786;-33
2022/02/22 10:19:26;;;;;;;;;;;;;;;17.97;58.73;99956.06;5002917;28;1971;-33
2022/02/22 10:21:56;;;;;;;;;;;;;;;18.01;58.97;99973.50;5002773;28;1829;-33
2022/02/22 10:24:27;;;;;;;;;;;;;;;18.00;58.75;99976.31;4997522;28;1742;-33
2022/02/22 10:27:02;;;;;;;;;;;;;;;17.98;59.20;99965.75;4997920;28;1905;-33
2022/02/22 10:29:31;;;;;;;;;;;;;;;17.99;58.82;99961.28;5003607;28;1230;-33
2022/02/22 10:31:58;;;;;;;;;;;;;;;18.01;58.95;99954.78;4996922;28;1836;-33
2022/02/22 10:34:34;;;;;;;;;;;;;;;18.07;59.04;99977.41;5005527;28;1749;-33
2022/02/22 10:37:04;;;;;;;;;;;;;;;18.04;58.97;99965.16;5006559;28;1424;-33
2022/02/22 10:39:30;;;;;;;;;;;;;;;18.04;59.21;99969.69;5010606;28;1898;-33
2022/02/22 10:41:57;;;;;;;;;;;;;;;18.00;59.18;99969.13;5003644;28;1447;-33
2022/02/22 10:44:45;;;;;;;;;;;;;;;18.03;59.21;99976.03;5005127;28;1354;-33
2022/02/22 10:47:17;;;;;;;;;;;;;;;18.02;59.08;99975.16;5004762;28;1748;-33
2022/02/22 10:49:50;;;;;;;;;;;;;;;18.03;59.06;99978.72;4996887;28;1390;-33
2022/02/22 10:52:29;;;;;;;;;;;;;;;18.03;58.95;99968.84;5009718;28;1308;-33
2022/02/22 10:54:59;;;;;;;;;;;;;;;18.05;58.62;99976.72;5001901;28;1317;-33
2022/02/22 10:57:27;;;;;;;;;;;;;;;18.05;58.89;99974.88;5005590;28;1854;-33
2022/02/22 10:59:54;;;;;;;;;;;;;;;18.05;58.97;99979.41;4994372;28;1977;-33
2022/02/22 11:02:20;;;;;;;;;;;;;;;18.05;58.74;99974.06;5003709;28;1594;-33
2022/02/22 11:04:59;;;;;;;;;;;;;;;18.03;58.62;99978.72;4998495;28;1746;-33
2022/02/22 11:07:26;;;;;;;;;;;;;;;18.01;58.87;99975.34;5003545;28;1618;-33
2022/02/22 11:09:59;;;;;;;;;;;;;;;17.99;58.88;99980.81;5008462;28;1642;-33
2022/02/22 11:12:29;;;;;;;;;;;;;;;18.00;59.00;99977.16;4996815;28;1955;-33
2022/02/22 11:15:09;;;;;;;;;;;;;;;18.00;58.95;99985.19;4994693;28;936;-33
2022/02/22 11:17:47;;;;;;;;;;;;;;;17.98;59.13;99994.34;5004158;28;1731;-33
2022/02/22 11:20:30;;;;;;;;;;;;;;;17.96;59.29;99990.97;5010092;28;1902;-33
2022/02/22 11:23:03;;;;;;;;;;;;;;;17.92;59.01;100000.28;5000188;28;1881;-33
2022/02/22 11:25:34;;;;;;;;;;;;;;;17.93;59.08;99985.94;5012514;28;2061;-33
2022/02/22 11:28:14;;;;;;;;;;;;;;;17.91;59.04;99999.47;4995868;28;1730;-33
2022/02/22 11:31:02;;;;;;;;;;;;;;;17.89;59.14;100006.78;4994984;28;1591;-33
2022/02/22 11:33:40;;;;;;;;;;;;;;;17.91;59.05;100014.66;4995583;28;1647;-33
2022/02/22 11:36:08;;;;;;;;;;;;;;;17.88;59.27;100016.63;4998276;28;1592;-33
2022/02/22 11:38:55;;;;;;;;;;;;;;;17.87;59.03;100020.28;5004080;28;1487;-33
2022/02/22 11:41:25;;;;;;;;;;;;;;;17.86;59.42;100015.09;4999027;28;1910;-33
2022/02/22 11:43:56;;;;;;;;;;;;;;;17.88;59.46;100021.97;4998810;28;1003;-33
2022/02/22 11:46:40;;;;;;;;;;;;;;;17.89;59.88;100034.38;5000393;28;1793;-33
2022/02/22 11:49:18;;;;;;;;;;;;;;;17.86;59.28;100034.66;4996140;28;1763;-33
2022/02/22 11:51:48;;;;;;;;;;;;;;;17.89;59.28;100038.88;5007970;28;2029;-33
2022/02/22 11:54:22;;;;;;;;;;;;;;;17.89;59.63;100045.06;5000653;28;1615;-33
2022/02/22 11:56:52;;;;;;;;;;;;;;;17.87;59.30;100047.03;5000729;28;1671;-33
2022/02/22 11:59:23;;;;;;;;;;;;;;;17.88;59.04;100051.38;5004461;28;1903;-33
2022/02/22 12:01:52;;;;;;;;;;;;;;;17.88;59.11;100062.09;5001864;28;1874;-33
2022/02/22 12:04:29;;;;;;;;;;;;;;;17.89;59.38;100062.94;5007222;28;1662;-33
2022/02/22 12:07:01;;;;;;;;;;;;;;;17.86;59.63;100066.75;4998355;28;1779;-33
2022/02/22 12:09:39;;;;;;;;;;;;;;;17.86;59.67;100050.69;4995220;28;1773;-33
2022/02/22 12:12:09;;;;;;;;;;;;;;;17.85;59.72;100065.06;5002805;28;1671;-33
2022/02/22 12:14:38;;;;;;;;;;;;;;;17.85;59.56;100065.06;4994101;28;1004;-33
2022/02/22 12:17:11;;;;;;;;;;;;;;;17.80;59.39;100069.97;5002961;28;1984;-33
2022/02/22 12:19:43;;;;;;;;;;;;;;;17.83;59.24;100069.72;5010168;28;1948;-33
2022/02/22 12:22:15;;;;;;;;;;;;;;;17.84;59.86;100075.91;5007240;28;1894;-33
2022/02/22 12:25:06;;;;;;;;;;;;;;;17.80;59.35;100067.28;5009582;28;1864;-33
2022/02/22 12:27:34;;;;;;;;;;;;;;;17.78;59.71;100082.63;5003949;28;1949;-33
2022/02/22 12:30:02;;;;;;;;;;;;;;;17.77;59.75;100078.28;5016693;28;1107;-33
2022/02/22 12:32:32;;;;;;;;;;;;;;;17.83;59.83;100096.47;5009317;28;1641;-33
2022/02/22 12:35:06;;;;;;;;;;;;;;;17.80;59.93;100077.16;5006384;28;1822;-33
2022/02/22 12:37:41;;;;;;;;;;;;;;;17.82;59.81;100096.56;5003283;28;1785;-33
2022/02/22 12:40:22;;;;;;;;;;;;;;;17.81;59.48;100089.56;5009550;28;1979;-33
2022/02/22 12:42:49;;;;;;;;;;;;;;;17.78;59.46;100095.16;5001927;28;1309;-33
2022/02/22 12:45:23;;;;;;;;;;;;;;;17.80;59.75;100104.72;4997158;28;1054;-33
2022/02/22 12:47:55;;;;;;;;;;;;;;;17.79;59.65;100108.41;5006660;28;1174;-33
2022/02/22 12:50:23;;;;;;;;;;;;;;;17.79;59.85;100112.91;5004218;28;1798;-33
2022/02/22 12:52:56;;;;;;;;;;;;;;;17.76;60.04;100111.34;5006517;28;2002;-33
2022/02/22 12:55:49;;;;;;;;;;;;;;;17.74;60.02;100115.16;5008080;28;1797;-33
2022/02/22 12:58:20;;;;;;;;;;;;;;;17.76;60.02;100113.19;5008406;28;1761;-33
2022/02/22 13:00:50;;;;;;;;;;;;;;;17.74;59.81;100116.00;4998325;28;1904;-33
2022/02/22 13:03:27;;;;;;;;;;;;;;;17.77;59.66;100121.09;5004998;28;1531;-33
2022/02/22 13:05:56;;;;;;;;;;;;;;;17.74;59.33;100110.66;5003718;28;1590;-33
2022/02/22 13:08:24;;;;;;;;;;;;;;;17.75;59.38;100128.41;5014233;28;1751;-33
2022/02/22 13:10:59;;;;;;;;;;;;;;;17.71;59.53;100118.97;5005002;28;1795;-33